Time;durP1;ratioP1;P1;durP2;ratioP2;P2;SDS_P1;SDS_P2;PMS_P1;PMS_P2;Temp;Humidity;BMP_temperature;BMP_pressure;BME280_temperature;BME280_humidity;BME280_pressure;Samples;Min_cycle;Max_cycle;Signal;HPM_P1;HPM_P2
2023/09/06 02:28:42;;;;;;;;;;;;;;;;;;;;;
2023/09/06 04:37:18;;;;;;;8.90;8.10;;;15.60;1.00;;;;;;6291093;22;20435;-91
2023/09/06 04:46:35;;;;;;;9.67;8.77;;;;;;;;;;6191367;23;20415;-89
2023/09/06 04:55:14;;;;;;;10.63;9.63;;;;;;;;;;6144565;23;20458;-88
2023/09/06 04:57:42;;;;;;;10.10;8.83;;;;;;;;;;6278309;22;20456;-88
2023/09/06 05:00:17;;;;;;;9.17;8.17;;;16.10;1.00;;;;;;6281087;22;20541;-87
2023/09/06 05:02:47;;;;;;;9.10;8.30;;;16.00;99.90;;;;;;6281997;22;20402;-87
2023/09/06 05:05:14;;;;;;;8.87;7.93;;;15.90;99.90;;;;;;6282521;22;20477;-87
2023/09/06 05:07:41;;;;;;;9.43;8.57;;;16.00;99.90;;;;;;6281254;22;20739;-88
2023/09/06 05:10:09;;;;;;;9.40;8.40;;;15.90;99.90;;;;;;6280023;22;20546;-87
2023/09/06 05:12:37;;;;;;;10.00;8.43;;;15.90;99.90;;;;;;6280228;22;20403;-87
2023/09/06 05:15:04;;;;;;;10.53;8.80;;;15.50;1.00;;;;;;6279936;22;20812;-87
2023/09/06 05:17:32;;;;;;;12.90;9.50;;;15.80;1.00;;;;;;6280127;22;20401;-87
2023/09/06 05:20:24;;;;;;;9.43;8.53;;;15.90;1.00;;;;;;6280049;22;20431;-87
2023/09/06 05:22:51;;;;;;;9.00;8.20;;;16.10;99.90;;;;;;6280741;22;20398;-88
2023/09/06 05:25:18;;;;;;;12.10;8.80;;;16.20;97.80;;;;;;6280423;22;20443;-86
2023/09/06 05:27:58;;;;;;;9.90;8.73;;;16.20;24.30;;;;;;6289708;22;20434;-86
2023/09/06 05:30:25;;;;;;;11.20;9.20;;;;;;;;;;6304777;22;20441;-89
2023/09/06 05:32:52;;;;;;;9.47;8.57;;;16.40;99.90;;;;;;6304887;22;20384;-89
2023/09/06 05:35:20;;;;;;;10.27;9.27;;;16.20;1.00;;;;;;6305448;22;20381;-89
2023/09/06 05:37:47;;;;;;;9.40;8.50;;;16.30;1.00;;;;;;6305412;22;20395;-89
2023/09/06 05:40:14;;;;;;;15.27;10.50;;;16.30;1.00;;;;;;6305085;22;20423;-87
2023/09/06 05:42:41;;;;;;;10.80;9.67;;;16.40;1.00;;;;;;6305521;22;20399;-89
2023/09/06 05:45:11;;;;;;;10.30;9.20;;;16.80;1.00;;;;;;6305248;22;20408;-88
2023/09/06 05:47:39;;;;;;;10.23;9.23;;;;;;;;;;6299499;22;20433;-87
2023/09/06 05:50:08;;;;;;;11.57;9.97;;;16.60;99.90;;;;;;6290161;22;20443;-87
2023/09/06 05:52:37;;;;;;;12.50;11.23;;;16.60;99.90;;;;;;6282347;22;20475;-87
2023/09/06 05:55:04;;;;;;;8.67;7.90;;;16.70;63.70;;;;;;6281511;22;20723;-86
2023/09/06 05:57:32;;;;;;;11.80;9.63;;;16.70;1.00;;;;;;6280091;22;20438;-86
2023/09/06 05:59:59;;;;;;;33.03;10.00;;;16.80;99.90;;;;;;6280180;22;20420;-86
2023/09/06 06:02:26;;;;;;;19.63;9.87;;;16.80;99.90;;;;;;6281880;22;20403;-87
2023/09/06 06:04:53;;;;;;;9.73;8.73;;;17.10;1.00;;;;;;6279863;22;20396;-87
2023/09/06 06:07:21;;;;;;;9.70;8.57;;;17.00;1.00;;;;;;6279334;22;20407;-87
2023/09/06 06:09:49;;;;;;;11.10;9.47;;;17.10;1.00;;;;;;6283014;22;20456;-87
2023/09/06 06:12:22;;;;;;;11.53;10.53;;;17.10;1.00;;;;;;6301340;22;20412;-87
2023/09/06 06:14:50;;;;;;;10.73;9.67;;;17.00;99.90;;;;;;6302816;22;20376;-90
2023/09/06 06:17:17;;;;;;;9.70;8.80;;;17.20;99.90;;;;;;6294626;22;20408;-87
2023/09/06 06:19:44;;;;;;;10.03;9.10;;;17.50;1.00;;;;;;6279707;22;20956;-88
2023/09/06 06:22:11;;;;;;;10.07;8.43;;;17.20;99.90;;;;;;6280883;22;20488;-87
2023/09/06 06:24:38;;;;;;;13.70;10.10;;;17.30;1.00;;;;;;6279758;22;20408;-87
2023/09/06 06:27:06;;;;;;;9.90;8.90;;;17.30;1.00;;;;;;6295408;22;20428;-87
2023/09/06 06:29:33;;;;;;;13.50;10.47;;;17.30;85.40;;;;;;6302467;22;20444;-87
2023/09/06 06:32:00;;;;;;;11.40;9.50;;;;;;;;;;6297741;22;20415;-87
2023/09/06 06:34:27;;;;;;;14.13;9.20;;;17.40;19.90;;;;;;6289035;22;20412;-87
2023/09/06 06:36:54;;;;;;;17.97;10.60;;;17.50;1.00;;;;;;6291121;22;20415;-87
2023/09/06 06:39:21;;;;;;;10.83;9.67;;;18.00;99.90;;;;;;6301335;22;20431;-86
2023/09/06 06:41:48;;;;;;;12.23;9.50;;;17.60;28.50;;;;;;6303577;22;20405;-87
2023/09/06 06:44:16;;;;;;;11.83;10.40;;;17.60;1.00;;;;;;6297288;22;20472;-87
2023/09/06 06:46:43;;;;;;;10.73;9.40;;;17.60;1.00;;;;;;6288756;22;20734;-87
2023/09/06 06:49:10;;;;;;;11.80;9.67;;;17.80;1.00;;;;;;6285870;22;20938;-87
2023/09/06 06:51:39;;;;;;;11.77;9.00;;;17.90;1.00;;;;;;6284922;22;20412;-87
2023/09/06 06:54:07;;;;;;;11.80;7.90;;;18.00;99.90;;;;;;6282671;22;20403;-87
2023/09/06 06:56:34;;;;;;;10.37;9.30;;;17.90;1.00;;;;;;6282680;22;20395;-88
2023/09/06 06:59:01;;;;;;;9.67;8.10;;;18.20;99.90;;;;;;6282547;22;20428;-88
2023/09/06 07:01:30;;;;;;;13.63;9.93;;;18.20;91.00;;;;;;6283108;22;20443;-87
2023/09/06 07:03:58;;;;;;;13.53;10.77;;;18.30;1.00;;;;;;6284711;22;20895;-87
2023/09/06 07:06:25;;;;;;;12.20;9.97;;;18.40;99.90;;;;;;6285457;22;20714;-87
2023/09/06 07:08:53;;;;;;;11.13;9.80;;;18.50;99.90;;;;;;6306085;22;20436;-87
2023/09/06 07:11:20;;;;;;;16.87;9.63;;;18.50;1.00;;;;;;6301403;22;20404;-88
2023/09/06 07:13:48;;;;;;;12.93;9.93;;;18.60;97.10;;;;;;6284736;22;20413;-87
2023/09/06 07:16:16;;;;;;;11.53;9.60;;;18.40;1.00;;;;;;6284837;22;20401;-87
2023/09/06 07:18:45;;;;;;;11.00;9.90;;;18.70;99.90;;;;;;6282981;22;20459;-87
2023/09/06 07:21:12;;;;;;;18.83;15.70;;;18.90;1.00;;;;;;6283846;22;20742;-87
2023/09/06 07:23:39;;;;;;;10.00;9.10;;;18.90;1.00;;;;;;6287606;22;20408;-87
2023/09/06 07:26:07;;;;;;;11.93;9.80;;;19.10;99.90;;;;;;6302771;22;20396;-88
2023/09/06 07:28:40;;;;;;;10.37;9.30;;;19.00;99.90;;;;;;6304294;22;20396;-88
2023/09/06 07:31:07;;;;;;;10.23;9.23;;;19.10;1.00;;;;;;6291393;22;20483;-87
2023/09/06 07:33:34;;;;;;;18.73;12.20;;;19.10;1.00;;;;;;6297980;22;20404;-89
2023/09/06 07:36:03;;;;;;;12.07;10.03;;;19.40;1.00;;;;;;6287907;22;20427;-87
2023/09/06 07:38:30;;;;;;;10.43;9.33;;;19.20;1.00;;;;;;6288412;22;20401;-88
2023/09/06 07:40:58;;;;;;;10.93;9.70;;;19.50;99.90;;;;;;6285893;22;20439;-88
2023/09/06 07:43:26;;;;;;;10.17;9.10;;;19.60;99.90;;;;;;6284245;22;20491;-88
2023/09/06 07:45:53;;;;;;;12.83;11.43;;;19.70;99.90;;;;;;6287633;22;20400;-88
2023/09/06 07:48:20;;;;;;;14.80;11.87;;;19.90;1.00;;;;;;6289277;22;20405;-87
2023/09/06 07:50:52;;;;;;;10.40;9.47;;;19.80;99.90;;;;;;6297245;22;20444;-88
2023/09/06 07:53:25;;;;;;;9.37;8.50;;;;;;;;;;6297169;22;20416;-89
2023/09/06 07:58:41;;;;;;;11.57;10.47;;;;;;;;;;6293683;22;20381;-89
2023/09/06 08:01:09;;;;;;;9.40;8.43;;;;;;;;;;6291923;22;20380;-87
2023/09/06 08:03:36;;;;;;;9.07;8.30;;;;;;;;;;6294350;22;20404;-87
2023/09/06 08:06:04;;;;;;;9.67;8.67;;;;;;;;;;6288445;22;20400;-88
2023/09/06 08:08:39;;;;;;;13.03;9.80;;;;;;;;;;6294864;22;20389;-89
2023/09/06 08:11:07;;;;;;;11.40;10.30;;;;;;;;;;6306006;22;20424;-89
2023/09/06 08:13:37;;;;;;;10.70;9.60;;;;;;;;;;6300630;22;20415;-88
2023/09/06 08:16:05;;;;;;;9.80;8.77;;;;;;;;;;6296565;22;20428;-88
2023/09/06 08:18:32;;;;;;;13.20;8.80;;;20.90;1.00;;;;;;6290510;22;20433;-87
2023/09/06 08:20:59;;;;;;;11.00;9.40;;;20.80;58.30;;;;;;6284002;22;20436;-88
2023/09/06 08:23:27;;;;;;;10.10;9.20;;;20.80;1.00;;;;;;6281470;22;20404;-87
2023/09/06 08:25:56;;;;;;;11.70;10.53;;;21.00;99.90;;;;;;6282166;22;20773;-88
2023/09/06 08:28:23;;;;;;;18.77;16.73;;;;;;;;;;6282466;22;20407;-88
2023/09/06 08:30:50;;;;;;;12.13;11.03;;;21.10;1.00;;;;;;6284955;22;20439;-88
2023/09/06 08:33:17;;;;;;;10.50;9.47;;;;;;;;;;6282268;22;20481;-87
2023/09/06 08:35:44;;;;;;;10.63;9.57;;;21.30;1.00;;;;;;6280481;22;20539;-88
2023/09/06 08:38:11;;;;;;;9.23;8.33;;;21.30;1.00;;;;;;6282845;22;20397;-87
2023/09/06 08:40:38;;;;;;;9.63;8.73;;;21.40;1.00;;;;;;6280335;22;20455;-88
2023/09/06 08:43:09;;;;;;;8.80;7.90;;;21.60;99.90;;;;;;6281939;22;20432;-87
2023/09/06 08:45:38;;;;;;;10.13;9.20;;;21.70;99.90;;;;;;6281688;22;20392;-88
2023/09/06 08:48:06;;;;;;;11.37;8.17;;;21.60;1.00;;;;;;6297740;22;20412;-91
2023/09/06 08:50:34;;;;;;;15.13;9.43;;;21.80;99.90;;;;;;6288374;22;20471;-89
2023/09/06 08:53:03;;;;;;;11.73;8.63;;;21.80;99.90;;;;;;6296216;22;20401;-88
2023/09/06 08:55:33;;;;;;;8.60;7.80;;;21.90;99.90;;;;;;6303379;22;20424;-88
2023/09/06 08:58:05;;;;;;;8.67;7.80;;;22.10;99.90;;;;;;6295730;22;20469;-88
2023/09/06 09:00:34;;;;;;;9.60;7.47;;;22.10;99.90;;;;;;6290143;22;20412;-88
2023/09/06 09:03:01;;;;;;;9.20;8.17;;;21.90;99.90;;;;;;6287263;22;20447;-88
2023/09/06 09:05:29;;;;;;;8.70;7.43;;;22.20;99.90;;;;;;6292049;22;20444;-87
2023/09/06 09:08:00;;;;;;;9.03;6.97;;;22.30;11.20;;;;;;6301433;22;20404;-87
2023/09/06 09:10:33;;;;;;;8.90;7.50;;;22.40;16.00;;;;;;6301915;22;20574;-88
2023/09/06 09:13:00;;;;;;;8.80;7.13;;;22.50;8.60;;;;;;6304064;22;20412;-88
2023/09/06 09:15:27;;;;;;;7.17;6.57;;;;;;;;;;6299336;22;20397;-88
2023/09/06 09:17:56;;;;;;;7.70;6.93;;;23.10;99.90;;;;;;6290964;22;20404;-87
2023/09/06 09:20:23;;;;;;;9.03;7.63;;;22.70;1.00;;;;;;6291131;22;20417;-88
2023/09/06 09:22:50;;;;;;;7.00;6.40;;;22.70;1.00;;;;;;6286530;22;20404;-88
2023/09/06 09:25:23;;;;;;;9.23;6.70;;;22.80;1.00;;;;;;6285126;22;20393;-87
2023/09/06 09:27:55;;;;;;;12.53;7.90;;;22.80;1.00;;;;;;6283950;22;20767;-89
2023/09/06 09:30:23;;;;;;;9.67;7.07;;;22.90;1.00;;;;;;6283301;22;20783;-87
2023/09/06 09:33:03;;;;;;;8.43;7.60;;;23.10;99.90;;;;;;6283813;22;20773;-88
2023/09/06 09:35:32;;;;;;;7.90;7.20;;;22.90;1.00;;;;;;6285031;22;20404;-88
2023/09/06 09:38:01;;;;;;;8.43;6.53;;;23.00;1.00;;;;;;6295493;22;20427;-88
2023/09/06 09:40:32;;;;;;;8.43;7.63;;;23.20;1.00;;;;;;6287572;22;20420;-88
2023/09/06 09:43:00;;;;;;;9.50;8.50;;;23.40;99.90;;;;;;6288629;22;20444;-87
2023/09/06 09:45:29;;;;;;;8.60;7.40;;;23.30;1.00;;;;;;6285469;22;20491;-89
2023/09/06 09:47:59;;;;;;;13.23;10.23;;;23.20;99.90;;;;;;6285593;22;20440;-89
2023/09/06 09:50:30;;;;;;;14.40;8.50;;;23.30;1.00;;;;;;6289471;22;20436;-87
2023/09/06 09:53:00;;;;;;;8.83;7.93;;;23.20;99.90;;;;;;6297577;22;20404;-89
2023/09/06 09:55:31;;;;;;;8.43;7.50;;;23.50;1.00;;;;;;6305275;22;20381;-89
2023/09/06 09:58:04;;;;;;;9.17;7.40;;;23.50;1.00;;;;;;6297247;22;20389;-88
2023/09/06 10:00:33;;;;;;;11.67;6.57;;;;;;;;;;6296061;22;20421;-88
2023/09/06 10:03:04;;;;;;;7.77;7.07;;;;;;;;;;6288477;22;20397;-87
2023/09/06 10:05:32;;;;;;;7.70;6.50;;;;;;;;;;6289307;22;20779;-88
2023/09/06 10:08:03;;;;;;;6.87;6.27;;;23.50;93.10;;;;;;6296102;22;20479;-89
2023/09/06 10:10:32;;;;;;;8.07;6.90;;;;;;;;;;6303124;22;20455;-89
2023/09/06 10:13:04;;;;;;;8.50;6.60;;;23.80;1.00;;;;;;6304219;22;20407;-89
2023/09/06 10:15:32;;;;;;;7.60;6.80;;;;;;;;;;6299771;22;20389;-88
2023/09/06 10:17:59;;;;;;;6.10;5.60;;;;;;;;;;6286084;22;20411;-88
2023/09/06 10:20:31;;;;;;;7.80;7.00;;;23.80;1.00;;;;;;6287495;22;20455;-88
2023/09/06 10:23:00;;;;;;;7.33;6.70;;;23.80;1.00;;;;;;6289810;22;20411;-88
2023/09/06 10:25:28;;;;;;;6.90;6.30;;;24.00;1.00;;;;;;6287509;22;20408;-88
2023/09/06 10:27:56;;;;;;;8.77;7.87;;;23.70;1.00;;;;;;6284791;22;20405;-88
2023/09/06 10:30:40;;;;;;;9.20;7.27;;;24.00;1.00;;;;;;6285777;22;20480;-88
2023/09/06 10:33:08;;;;;;;6.70;6.10;;;24.10;1.00;;;;;;6287567;22;20389;-88
2023/09/06 10:35:43;;;;;;;7.63;6.70;;;24.10;1.00;;;;;;6286541;22;20447;-88
2023/09/06 10:38:14;;;;;;;8.90;5.80;;;24.10;1.00;;;;;;6287892;22;20502;-88
2023/09/06 10:41:10;;;;;;;7.40;6.70;;;24.10;1.00;;;;;;6299790;22;20400;-88
2023/09/06 10:44:06;;;;;;;6.60;5.90;;;24.30;1.00;;;;;;6226402;22;20412;-88
2023/09/06 10:46:33;;;;;;;7.63;6.90;;;24.50;99.90;;;;;;6290128;22;20421;-87
2023/09/06 10:49:19;;;;;;;6.90;6.20;;;24.40;1.00;;;;;;6288334;22;20428;-88
2023/09/06 10:52:08;;;;;;;7.90;6.63;;;24.80;99.90;;;;;;6287108;22;20440;-88
2023/09/06 10:54:40;;;;;;;9.10;7.17;;;24.50;1.00;;;;;;6288436;22;20389;-88
2023/09/06 10:57:08;;;;;;;7.13;6.43;;;24.60;1.00;;;;;;6287477;22;20420;-89
2023/09/06 10:59:39;;;;;;;6.83;6.13;;;24.60;1.00;;;;;;6285932;22;20452;-88
2023/09/06 11:02:17;;;;;;;7.23;6.53;;;24.70;1.00;;;;;;6287149;22;20486;-88
2023/09/06 11:04:44;;;;;;;6.93;6.27;;;24.70;1.00;;;;;;6287152;22;20385;-87
2023/09/06 11:07:13;;;;;;;7.40;6.63;;;24.90;1.00;;;;;;6288494;22;20472;-87
2023/09/06 11:09:45;;;;;;;7.87;7.23;;;24.80;1.00;;;;;;6286599;22;20804;-88
2023/09/06 11:12:13;;;;;;;7.67;6.97;;;24.50;99.90;;;;;;6265948;23;20508;-87
2023/09/06 11:14:41;;;;;;;6.87;6.17;;;24.80;99.90;;;;;;6275268;22;20410;-90
2023/09/06 11:17:08;;;;;;;6.43;5.93;;;25.20;99.90;;;;;;6268244;22;20421;-89
2023/09/06 11:19:36;;;;;;;6.47;5.93;;;25.30;99.90;;;;;;6268261;22;20445;-90
2023/09/06 11:22:12;;;;;;;7.00;6.30;;;24.90;1.00;;;;;;6259033;22;20463;-88
2023/09/06 11:24:44;;;;;;;6.27;5.67;;;25.00;1.00;;;;;;6266756;22;20386;-89
2023/09/06 11:27:19;;;;;;;8.03;7.23;;;25.00;1.00;;;;;;6262010;23;20390;-89
2023/09/06 11:29:47;;;;;;;7.63;6.10;;;25.20;1.00;;;;;;6256223;23;20437;-88
2023/09/06 11:32:18;;;;;;;7.13;6.43;;;25.20;1.00;;;;;;6257353;23;20449;-88
2023/09/06 11:34:46;;;;;;;6.87;6.27;;;;;;;;;;6255331;23;20414;-88
2023/09/06 11:37:15;;;;;;;7.63;6.87;;;25.20;1.00;;;;;;6264602;23;20409;-88
2023/09/06 11:39:45;;;;;;;8.40;7.50;;;25.00;99.90;;;;;;6269370;23;20418;-88
2023/09/06 11:42:15;;;;;;;7.47;6.77;;;25.40;1.00;;;;;;6268687;23;20424;-88
2023/09/06 11:44:47;;;;;;;11.10;6.20;;;25.30;1.00;;;;;;6272669;22;20374;-88
2023/09/06 11:47:16;;;;;;;6.70;6.00;;;25.40;1.00;;;;;;6265384;23;20396;-88
2023/09/06 11:49:45;;;;;;;6.70;6.10;;;25.40;1.00;;;;;;6254670;23;20445;-88
2023/09/06 11:52:16;;;;;;;6.93;6.23;;;25.70;96.90;;;;;;6256207;23;20460;-87
2023/09/06 11:54:47;;;;;;;8.70;5.47;;;25.50;1.00;;;;;;6253785;23;20459;-88
2023/09/06 11:57:23;;;;;;;7.67;6.50;;;25.50;1.00;;;;;;6253661;23;20389;-88
2023/09/06 11:59:53;;;;;;;9.63;8.27;;;25.60;1.00;;;;;;6253326;23;20958;-88
2023/09/06 12:02:21;;;;;;;9.43;6.60;;;25.60;1.00;;;;;;6254717;23;20463;-88
2023/09/06 12:05:00;;;;;;;10.40;8.70;;;25.70;1.00;;;;;;6256295;23;20409;-88
2023/09/06 12:07:29;;;;;;;7.57;6.93;;;25.60;1.00;;;;;;6257857;23;20717;-88
2023/09/06 12:10:03;;;;;;;17.07;15.30;;;25.70;1.00;;;;;;6256927;23;20442;-88
2023/09/06 12:12:40;;;;;;;7.00;6.40;;;25.60;1.00;;;;;;6256989;23;20433;-88
2023/09/06 12:15:13;;;;;;;10.90;7.60;;;25.60;1.00;;;;;;6269712;23;20385;-89
2023/09/06 12:17:43;;;;;;;6.70;6.10;;;;;;;;;;6268662;23;20397;-88
2023/09/06 12:20:18;;;;;;;6.30;5.80;;;25.70;1.00;;;;;;6259015;23;20495;-88
2023/09/06 12:22:47;;;;;;;6.00;5.37;;;25.70;1.00;;;;;;6256841;23;20405;-88
2023/09/06 12:25:18;;;;;;;7.80;7.10;;;25.80;1.00;;;;;;6256809;23;20967;-89
2023/09/06 12:27:45;;;;;;;6.30;5.70;;;25.80;1.00;;;;;;6256884;23;20386;-88
2023/09/06 12:30:14;;;;;;;5.53;5.03;;;25.60;77.10;;;;;;6254179;23;20433;-88
2023/09/06 12:32:42;;;;;;;5.60;5.13;;;25.80;1.00;;;;;;6255480;23;20456;-89
2023/09/06 12:35:10;;;;;;;5.13;4.70;;;25.80;99.90;;;;;;6255064;23;20405;-89
2023/09/06 12:37:37;;;;;;;4.03;3.73;;;26.00;99.90;;;;;;6254496;23;20796;-89
2023/09/06 12:40:10;;;;;;;6.63;5.27;;;25.90;99.90;;;;;;6255931;23;20433;-88
2023/09/06 12:42:39;;;;;;;4.70;4.20;;;;;;;;;;6255231;23;20446;-89
2023/09/06 12:45:08;;;;;;;7.30;4.23;;;26.10;99.90;;;;;;6256014;23;20405;-89
2023/09/06 12:47:35;;;;;;;5.53;4.93;;;26.10;99.90;;;;;;6255442;23;20516;-89
2023/09/06 12:50:04;;;;;;;5.60;5.20;;;25.80;1.00;;;;;;6255215;23;20472;-87
2023/09/06 12:52:31;;;;;;;5.83;5.27;;;26.60;44.40;;;;;;6255865;23;20496;-88
2023/09/06 12:54:58;;;;;;;8.17;6.60;;;26.30;99.90;;;;;;6256724;23;20464;-88
2023/09/06 12:57:26;;;;;;;6.83;5.77;;;;;;;;;;6256071;23;20481;-88
2023/09/06 12:59:56;;;;;;;8.03;7.33;;;26.30;99.90;;;;;;6255199;23;20720;-88
2023/09/06 13:02:23;;;;;;;7.40;5.70;;;;;;;;;;6253892;23;20398;-88
2023/09/06 13:04:51;;;;;;;11.17;5.43;;;;;;;;;;6255111;23;20409;-89
2023/09/06 13:07:18;;;;;;;7.33;6.40;;;;;;;;;;6252356;23;20397;-88
2023/09/06 13:09:45;;;;;;;5.23;4.83;;;;;;;;;;6253958;23;20967;-88
2023/09/06 13:12:12;;;;;;;5.83;5.30;;;;;;;;;;6260212;23;20441;-88
2023/09/06 13:14:39;;;;;;;8.00;5.70;;;26.80;1.00;;;;;;6270134;22;20409;-88
2023/09/06 13:17:07;;;;;;;6.03;5.63;;;26.40;99.90;;;;;;6273378;22;20887;-88
2023/09/06 13:19:34;;;;;;;7.03;5.97;;;26.40;99.90;;;;;;6271174;23;20432;-88
2023/09/06 13:22:03;;;;;;;5.60;5.20;;;26.30;99.90;;;;;;6262152;23;20436;-88
2023/09/06 13:24:33;;;;;;;5.53;5.03;;;26.20;99.90;;;;;;6254836;23;20483;-87
2023/09/06 13:27:00;;;;;;;7.13;5.80;;;26.10;24.10;;;;;;6267027;23;20398;-87
2023/09/06 13:29:27;;;;;;;5.30;4.90;;;;;;;;;;6268759;23;20431;-87
2023/09/06 13:31:56;;;;;;;8.33;5.70;;;;;;;;;;6266803;23;20448;-87
2023/09/06 13:34:24;;;;;;;6.23;5.03;;;;;;;;;;6255804;23;20428;-87
2023/09/06 13:36:52;;;;;;;4.90;4.50;;;;;;;;;;6255851;23;20425;-88
2023/09/06 13:39:20;;;;;;;6.20;4.97;;;;;;;;;;6254380;23;20452;-88
2023/09/06 13:41:48;;;;;;;5.33;4.93;;;;;;;;;;6255462;23;20433;-88
2023/09/06 13:44:15;;;;;;;5.73;5.20;;;;;;;;;;6253042;23;20894;-88
2023/09/06 13:46:42;;;;;;;5.00;4.60;;;;;;;;;;6268025;22;20787;-89
2023/09/06 13:49:10;;;;;;;5.53;4.97;;;;;;;;;;6268861;23;20428;-88
2023/09/06 13:51:38;;;;;;;5.77;5.20;;;26.40;99.90;;;;;;6271574;22;20495;-87
2023/09/06 13:54:06;;;;;;;6.13;5.40;;;26.90;1.00;;;;;;6271666;23;20456;-87
2023/09/06 13:56:34;;;;;;;5.87;5.13;;;;;;;;;;6269245;23;20401;-88
2023/09/06 13:59:01;;;;;;;6.60;6.00;;;;;;;;;;6269204;23;20448;-87
2023/09/06 14:01:29;;;;;;;7.27;5.87;;;;;;;;;;6265426;23;20405;-88
2023/09/06 14:03:57;;;;;;;6.57;5.97;;;26.40;99.90;;;;;;6265780;23;20390;-88
2023/09/06 14:06:25;;;;;;;5.40;4.90;;;26.50;99.90;;;;;;6265443;23;20436;-91
2023/09/06 14:08:57;;;;;;;5.97;5.23;;;26.50;99.90;;;;;;6260411;23;20433;-88
2023/09/06 14:11:25;;;;;;;10.87;9.80;;;26.50;99.90;;;;;;6254230;23;20433;-88
2023/09/06 14:13:53;;;;;;;14.30;12.80;;;26.40;99.90;;;;;;6259009;23;20500;-88
2023/09/06 14:16:21;;;;;;;13.70;11.90;;;26.40;99.90;;;;;;6255414;23;20409;-87
2023/09/06 14:18:48;;;;;;;14.33;12.93;;;;;;;;;;6255923;23;20421;-88
2023/09/06 14:21:20;;;;;;;22.03;19.70;;;;;;;;;;6260480;23;20408;-88
2023/09/06 14:23:48;;;;;;;13.70;12.23;;;26.40;99.90;;;;;;6257370;23;20388;-88
2023/09/06 14:26:16;;;;;;;16.70;14.83;;;26.00;10.80;;;;;;6256839;23;20450;-88
2023/09/06 14:28:44;;;;;;;8.50;7.73;;;;;;;;;;6257267;23;21005;-88
2023/09/06 14:31:11;;;;;;;9.00;8.20;;;;;;;;;;6258884;23;20494;-88
2023/09/06 14:33:39;;;;;;;16.60;14.27;;;26.70;19.00;;;;;;6259222;23;20507;-89
2023/09/06 14:36:07;;;;;;;25.70;20.13;;;;;;;;;;6261224;23;20712;-89
2023/09/06 14:38:34;;;;;;;12.43;11.13;;;;;;;;;;6258503;23;20394;-89
2023/09/06 14:41:03;;;;;;;16.43;14.60;;;;;;;;;;6262828;23;20413;-89
2023/09/06 15:36:43;;;;;;;7.17;6.47;;;26.40;99.90;;;;;;6201670;23;20442;-86
2023/09/06 15:39:11;;;;;;;6.87;6.17;;;26.40;99.90;;;;;;6226801;23;20429;-86
2023/09/06 15:41:38;;;;;;;6.03;5.43;;;26.30;99.90;;;;;;6226631;23;20425;-84
2023/09/06 15:44:05;;;;;;;6.77;6.03;;;26.20;99.90;;;;;;6225823;23;20413;-85
2023/09/06 15:46:32;;;;;;;7.47;5.60;;;25.90;99.90;;;;;;6226988;23;20781;-85
2023/09/06 15:48:59;;;;;;;5.67;5.17;;;;;;;;;;6239799;22;20437;-83
2023/09/06 15:51:26;;;;;;;7.83;5.70;;;25.50;99.90;;;;;;6244289;22;20418;-85
2023/09/06 15:53:54;;;;;;;6.30;5.13;;;25.50;99.90;;;;;;6244594;22;20387;-84
2023/09/06 15:56:22;;;;;;;6.77;6.17;;;25.50;99.90;;;;;;6244061;23;20391;-85
2023/09/06 15:58:49;;;;;;;5.77;5.33;;;;;;;;;;6243640;22;20421;-86
2023/09/06 16:01:16;;;;;;;5.70;5.20;;;25.30;99.90;;;;;;6243979;22;20414;-84
2023/09/06 16:03:43;;;;;;;5.33;4.83;;;24.80;1.00;;;;;;6244524;22;20406;-84
2023/09/06 16:06:10;;;;;;;7.30;6.10;;;24.90;99.90;;;;;;6244324;22;20387;-86
2023/09/06 16:08:37;;;;;;;6.03;5.17;;;;;;;;;;6244022;22;20391;-83
2023/09/06 16:11:05;;;;;;;12.00;7.63;;;24.70;99.90;;;;;;6244163;22;20394;-83
2023/09/06 16:13:32;;;;;;;10.93;9.87;;;24.60;99.90;;;;;;6244111;22;20431;-85
2023/09/06 16:15:59;;;;;;;37.80;18.97;;;24.30;1.00;;;;;;6243435;22;20375;-86
2023/09/06 16:18:28;;;;;;;35.97;15.63;;;;;;;;;;6242915;22;20488;-86
2023/09/06 16:20:55;;;;;;;18.50;9.73;;;24.50;99.90;;;;;;6233434;23;20460;-85
2023/09/06 16:23:21;;;;;;;53.30;22.87;;;24.60;99.90;;;;;;6237337;23;20426;-86
2023/09/06 16:25:48;;;;;;;30.30;14.47;;;24.90;99.90;;;;;;6237945;23;20398;-86
2023/09/06 16:28:16;;;;;;;27.30;12.80;;;25.00;1.00;;;;;;6235094;23;20442;-87
2023/09/06 16:30:43;;;;;;;26.80;13.00;;;25.10;99.90;;;;;;6233792;23;20445;-88
2023/09/06 16:33:10;;;;;;;35.17;13.77;;;25.10;99.90;;;;;;6230281;23;20453;-86
2023/09/06 16:35:39;;;;;;;25.17;11.43;;;25.10;99.90;;;;;;6227854;23;20896;-86
2023/09/06 16:38:07;;;;;;;22.43;9.27;;;;;;;;;;6227193;23;20415;-87
2023/09/06 16:40:34;;;;;;;10.83;6.00;;;25.20;99.90;;;;;;6227110;23;20796;-87
2023/09/06 16:43:01;;;;;;;8.93;6.40;;;25.20;99.90;;;;;;6226542;23;20422;-87
2023/09/06 16:45:29;;;;;;;12.23;7.17;;;25.20;99.90;;;;;;6226895;23;20414;-86
2023/09/06 16:48:42;;;;;;;;;;;;;;;;;;;;;
2023/09/06 16:51:35;;;;;;;7.53;4.33;;;;;;;;;;6104363;23;20416;-90
2023/09/06 16:54:12;;;;;;;7.60;4.47;;;;;;;;;;6106324;23;20406;-91
2023/09/06 17:00:39;;;;;;;;;;;;;;;;;;;;;
2023/09/06 17:03:32;;;;;;;4.50;4.10;;;;;;;;;;6228328;23;20406;-91
2023/09/06 17:09:43;;;;;;;6.10;4.73;;;25.00;99.90;;;;;;6212293;23;20434;-92
2023/09/06 18:32:20;;;;;;;7.27;6.53;;;23.30;1.00;;;;;;6175649;22;21182;-87
2023/09/06 18:35:57;;;;;;;7.20;6.50;;;23.20;1.00;;;;;;6043104;23;20930;-88
2023/09/06 18:45:41;;;;;;;8.87;7.97;;;;;;;;;;5999631;23;20410;-89
2023/09/06 20:49:24;;;;;;;15.93;12.97;;;21.10;1.00;;;;;;6253824;23;20424;-86
2023/09/06 20:51:51;;;;;;;9.20;7.90;;;;;;;;;;6224326;23;20441;-87
2023/09/06 20:54:19;;;;;;;9.00;7.73;;;20.80;99.90;;;;;;6223123;23;20406;-87
2023/09/06 20:56:46;;;;;;;13.20;8.20;;;20.90;1.00;;;;;;6223597;23;20802;-87
2023/09/06 21:01:49;;;;;;;10.47;9.23;;;;;;;;;;6252300;22;20927;-89
2023/09/06 21:04:16;;;;;;;11.67;9.47;;;;;;;;;;6259382;23;20390;-89
2023/09/06 21:06:45;;;;;;;7.83;7.10;;;20.50;1.00;;;;;;6269004;23;20393;-89
2023/09/06 21:09:14;;;;;;;9.60;8.63;;;;;;;;;;6263643;23;20402;-89
2023/09/06 21:11:42;;;;;;;12.83;9.90;;;;;;;;;;6225095;23;20441;-89
2023/09/06 21:14:09;;;;;;;14.40;11.07;;;;;;;;;;6224831;23;20469;-89
2023/09/06 21:17:36;;;;;;;12.00;9.00;;;20.60;1.00;;;;;;6222583;23;20422;-91
2023/09/06 21:20:13;;;;;;;11.57;9.50;;;;;;;;;;6117561;23;20435;-90
2023/09/06 21:23:42;;;;;;;;;;;;;;;;;;;;;
2023/09/06 21:26:15;;;;;;;8.70;7.83;;;;;;;;;;6237449;23;20406;-89
2023/09/06 21:28:44;;;;;;;8.70;7.50;;;;;;;;;;6238182;23;20382;-89
2023/09/06 21:31:11;;;;;;;8.67;7.07;;;;;;;;;;6239952;23;20433;-90
2023/09/06 21:33:40;;;;;;;8.53;7.50;;;;;;;;;;6204832;23;20430;-89
2023/09/06 21:36:14;;;;;;;9.10;7.43;;;;;;;;;;6199297;23;20441;-90
2023/09/06 21:38:41;;;;;;;7.93;7.13;;;;;;;;;;6195706;23;20466;-90
2023/09/06 21:41:09;;;;;;;6.90;6.30;;;;;;;;;;6194697;23;20434;-90
2023/09/06 21:43:37;;;;;;;10.13;8.27;;;20.50;1.00;;;;;;6194082;23;20496;-89
2023/09/06 21:46:05;;;;;;;7.93;7.13;;;;;;;;;;6193842;23;20414;-90
2023/09/06 21:48:32;;;;;;;8.30;7.13;;;20.50;1.00;;;;;;6202803;23;20403;-88
2023/09/06 21:51:12;;;;;;;9.07;8.20;;;20.50;1.00;;;;;;6212071;23;20439;-89
2023/09/06 21:53:39;;;;;;;10.97;9.80;;;20.40;1.00;;;;;;6204874;23;20411;-90
2023/09/06 21:56:06;;;;;;;9.03;8.23;;;;;;;;;;6208943;23;20408;-90
2023/09/06 21:58:33;;;;;;;8.90;8.00;;;;;;;;;;6209612;23;20399;-90
2023/09/06 22:01:02;;;;;;;8.47;6.80;;;20.00;99.90;;;;;;6209256;23;20443;-89
2023/09/06 22:03:29;;;;;;;6.93;6.33;;;20.20;1.00;;;;;;6209931;23;20396;-90
2023/09/06 22:05:56;;;;;;;9.17;8.30;;;20.10;1.00;;;;;;6211547;23;20404;-89
2023/09/06 22:08:23;;;;;;;8.17;7.57;;;;;;;;;;6210807;23;20434;-90
2023/09/06 22:10:50;;;;;;;10.30;8.47;;;20.10;1.00;;;;;;6212077;23;20442;-88
2023/09/06 22:13:18;;;;;;;7.60;6.90;;;19.60;99.90;;;;;;6210717;23;20502;-89
2023/09/06 22:15:45;;;;;;;9.20;8.07;;;;;;;;;;6212993;23;20397;-89
2023/09/06 22:18:13;;;;;;;9.13;7.47;;;;;;;;;;6214188;23;20402;-89
2023/09/06 22:20:41;;;;;;;9.93;7.97;;;19.80;35.20;;;;;;6200698;23;20462;-90
2023/09/06 22:23:09;;;;;;;9.53;7.83;;;19.80;40.40;;;;;;6204791;23;20473;-90
2023/09/06 22:25:36;;;;;;;9.80;7.87;;;;;;;;;;6214127;23;20474;-87
2023/09/06 22:28:06;;;;;;;10.53;9.43;;;19.90;1.00;;;;;;6215539;23;20383;-87
2023/09/06 22:30:34;;;;;;;8.70;7.80;;;19.70;45.10;;;;;;6215403;23;20410;-87
2023/09/06 22:33:01;;;;;;;8.60;7.80;;;;;;;;;;6214641;23;20451;-90
2023/09/06 22:35:29;;;;;;;8.10;7.20;;;19.60;76.70;;;;;;6212366;23;20854;-89
2023/09/06 22:37:56;;;;;;;8.50;7.60;;;19.60;91.00;;;;;;6202583;23;20394;-89
2023/09/06 22:40:23;;;;;;;16.83;8.20;;;;;;;;;;6195995;23;20459;-90
2023/09/06 22:42:50;;;;;;;10.03;8.00;;;19.50;99.90;;;;;;6194455;23;20419;-90
2023/09/06 22:45:17;;;;;;;9.20;8.07;;;19.40;99.90;;;;;;6196023;23;20442;-89
2023/09/06 22:47:44;;;;;;;9.80;7.10;;;19.40;99.90;;;;;;6194719;23;20441;-89
2023/09/06 22:50:11;;;;;;;9.40;8.40;;;19.40;99.90;;;;;;6196750;23;20507;-89
2023/09/06 22:52:40;;;;;;;11.20;7.63;;;19.40;99.90;;;;;;6194909;23;20408;-90